createdAt,value
2022-08-19T00:00:00.026Z,17.90
2022-08-19T00:01:00.014Z,19.20
2022-08-19T00:02:00.180Z,18.00
2022-08-19T00:03:00.005Z,15.40
2022-08-19T00:04:00.005Z,15.90
2022-08-19T00:05:00.028Z,17.50
2022-08-19T00:05:59.984Z,18.00
2022-08-19T00:06:59.973Z,16.40
2022-08-19T00:07:59.965Z,17.30
2022-08-19T00:08:59.974Z,14.90
2022-08-19T00:09:59.953Z,16.30
2022-08-19T00:10:59.954Z,17.60
2022-08-19T00:11:59.943Z,16.60
2022-08-19T00:12:59.940Z,15.90
2022-08-19T00:13:59.934Z,16.10
2022-08-19T00:14:59.925Z,17.80
2022-08-19T00:15:59.914Z,17.90
2022-08-19T00:16:59.904Z,17.80
2022-08-19T00:17:59.903Z,15.10
2022-08-19T00:18:59.923Z,15.10
2022-08-19T00:19:59.886Z,18.80
2022-08-19T00:20:59.883Z,17.40
2022-08-19T00:21:59.873Z,17.60
2022-08-19T00:22:59.872Z,17.90
2022-08-19T00:23:59.872Z,17.50
2022-08-19T00:24:59.852Z,19.50
2022-08-19T00:25:59.844Z,18.40
2022-08-19T00:27:25.294Z,17.00
2022-08-19T00:27:59.841Z,19.90
2022-08-19T00:28:59.843Z,18.30
2022-08-19T00:29:59.833Z,20.40
2022-08-19T00:30:59.839Z,18.30
2022-08-19T00:31:59.802Z,19.20
2022-08-19T00:32:59.801Z,18.00
2022-08-19T00:33:59.810Z,17.90
2022-08-19T00:34:59.800Z,20.10
2022-08-19T00:35:59.781Z,18.60
2022-08-19T00:36:59.779Z,18.80
2022-08-19T00:37:59.781Z,19.80
2022-08-19T00:38:59.763Z,18.40
2022-08-19T00:39:59.808Z,17.70
2022-08-19T00:40:59.752Z,17.70
2022-08-19T00:41:59.745Z,15.90
2022-08-19T00:42:59.759Z,16.80
2022-08-19T00:43:59.729Z,16.70
2022-08-19T00:44:59.722Z,17.30
2022-08-19T00:45:59.711Z,16.60
2022-08-19T00:46:59.711Z,17.50
2022-08-19T00:47:59.752Z,15.60
2022-08-19T00:48:59.692Z,17.20
2022-08-19T00:49:59.680Z,17.50
2022-08-19T00:50:59.683Z,17.00
2022-08-19T00:51:59.670Z,16.50
2022-08-19T00:52:59.670Z,17.70
2022-08-19T00:53:59.667Z,17.60
2022-08-19T00:54:59.650Z,18.20
2022-08-19T00:55:59.731Z,17.70
2022-08-19T00:56:59.642Z,16.40
2022-08-19T00:57:59.651Z,17.10
2022-08-19T00:58:59.622Z,17.00
2022-08-19T01:00:02.412Z,15.70
2022-08-19T01:00:59.609Z,17.60
2022-08-19T01:01:59.694Z,16.60
2022-08-19T01:02:59.619Z,18.40
2022-08-19T01:03:59.597Z,17.50
2022-08-19T01:04:59.590Z,18.00
2022-08-19T01:05:59.579Z,18.30
2022-08-19T01:06:59.578Z,19.70
2022-08-19T01:07:59.578Z,19.20
2022-08-19T01:08:59.569Z,20.00
2022-08-19T01:09:59.548Z,17.40
2022-08-19T01:10:59.543Z,20.00
2022-08-19T01:11:59.543Z,18.40
2022-08-19T01:12:59.624Z,20.00
2022-08-19T01:13:59.538Z,17.60
2022-08-19T01:14:59.540Z,16.10
2022-08-19T01:15:59.549Z,17.50
2022-08-19T01:16:59.528Z,17.40
2022-08-19T01:17:59.529Z,18.10
2022-08-19T01:18:59.507Z,19.10
2022-08-19T01:19:59.478Z,16.80
2022-08-19T01:20:59.478Z,17.50
2022-08-19T01:21:59.468Z,16.50
2022-08-19T01:22:59.458Z,17.70
2022-08-19T01:23:59.458Z,16.60
2022-08-19T01:24:59.489Z,17.10
2022-08-19T01:25:59.447Z,17.40
2022-08-19T01:26:59.458Z,16.80
2022-08-19T01:28:06.434Z,18.40
2022-08-19T01:29:00.844Z,17.40
2022-08-19T01:29:59.427Z,16.90
2022-08-19T01:30:59.407Z,18.70
2022-08-19T01:31:59.398Z,17.50
2022-08-19T01:32:59.396Z,20.00
2022-08-19T01:33:59.396Z,18.60
2022-08-19T01:34:59.386Z,17.60
2022-08-19T01:35:59.366Z,18.00
2022-08-19T01:36:59.377Z,20.30
2022-08-19T01:37:59.375Z,17.80
2022-08-19T01:38:59.376Z,17.30
2022-08-19T01:39:59.434Z,18.60
2022-08-19T01:40:59.343Z,15.90
2022-08-19T01:41:59.328Z,16.90
2022-08-19T01:42:59.328Z,17.40
2022-08-19T01:44:13.665Z,17.20
2022-08-19T01:44:59.336Z,18.80
2022-08-19T01:45:59.307Z,18.40
2022-08-19T01:46:59.307Z,16.70
2022-08-19T01:48:01.987Z,17.80
2022-08-19T01:48:59.297Z,17.10
2022-08-19T01:49:59.284Z,18.70
2022-08-19T01:50:59.275Z,19.60
2022-08-19T01:51:59.265Z,17.40
2022-08-19T01:53:06.210Z,18.80
2022-08-19T01:53:59.295Z,17.20
2022-08-19T01:54:59.257Z,19.30
2022-08-19T01:55:59.234Z,19.40
2022-08-19T01:56:59.240Z,20.10
2022-08-19T01:57:59.254Z,21.60
2022-08-19T01:58:59.236Z,20.70
2022-08-19T01:59:59.206Z,20.40
2022-08-19T02:00:59.264Z,19.80
2022-08-19T02:01:59.194Z,18.70
2022-08-19T02:02:59.197Z,18.20
2022-08-19T02:03:59.213Z,18.00
2022-08-19T02:04:59.184Z,18.10
2022-08-19T02:05:59.163Z,17.10
2022-08-19T02:06:59.166Z,17.60
2022-08-19T02:07:59.155Z,18.30
2022-08-19T02:08:59.191Z,18.80
2022-08-19T02:09:59.154Z,19.40
2022-08-19T02:10:59.143Z,18.50
2022-08-19T02:11:59.194Z,20.40
2022-08-19T02:12:59.124Z,19.70
2022-08-19T02:13:59.143Z,18.10
2022-08-19T02:14:59.142Z,21.80
2022-08-19T02:15:59.103Z,19.30
2022-08-19T02:16:59.101Z,21.90
2022-08-19T02:17:59.084Z,19.10
2022-08-19T02:18:59.103Z,19.00
2022-08-19T02:19:59.103Z,20.20
2022-08-19T02:20:59.069Z,18.70
2022-08-19T02:21:59.065Z,20.70
2022-08-19T02:22:59.052Z,20.70
2022-08-19T02:23:59.104Z,20.30
2022-08-19T02:24:59.074Z,19.20
2022-08-19T02:25:59.045Z,20.60
2022-08-19T02:26:59.052Z,20.30
2022-08-19T02:27:59.032Z,21.30
2022-08-19T02:28:59.024Z,20.90
2022-08-19T02:29:59.027Z,19.90
2022-08-19T02:30:59.011Z,19.80
2022-08-19T02:31:59.001Z,20.50
2022-08-19T02:32:59.287Z,21.80
2022-08-19T02:33:58.990Z,22.30
2022-08-19T02:34:58.990Z,22.90
2022-08-19T02:35:58.970Z,20.70
2022-08-19T02:37:03.464Z,22.50
2022-08-19T02:37:58.950Z,24.30
2022-08-19T02:38:58.961Z,21.20
2022-08-19T02:39:59.712Z,21.80
2022-08-19T02:40:58.939Z,21.70
2022-08-19T02:41:59.012Z,23.60
2022-08-19T02:42:58.919Z,20.70
2022-08-19T02:44:26.695Z,22.40
2022-08-19T02:44:58.900Z,20.10
2022-08-19T02:45:58.899Z,23.50
2022-08-19T02:46:58.901Z,21.50
2022-08-19T02:47:58.900Z,21.60
2022-08-19T02:48:58.942Z,23.90
2022-08-19T02:49:58.879Z,23.90
2022-08-19T02:50:59.080Z,25.70
2022-08-19T02:51:59.440Z,24.10
2022-08-19T02:52:58.857Z,25.00
2022-08-19T02:53:58.864Z,23.50
2022-08-19T02:54:58.859Z,22.30
2022-08-19T02:55:58.850Z,23.40
2022-08-19T02:56:58.853Z,23.70
2022-08-19T02:57:58.820Z,22.50
2022-08-19T02:58:58.829Z,23.30
2022-08-19T02:59:58.818Z,25.50
2022-08-19T03:00:58.837Z,25.00
2022-08-19T03:01:58.797Z,28.20
2022-08-19T03:02:58.839Z,24.80
2022-08-19T03:03:58.789Z,24.70
2022-08-19T03:04:58.768Z,22.80
2022-08-19T03:05:58.786Z,23.50
2022-08-19T03:07:07.204Z,22.60
2022-08-19T03:07:58.758Z,25.70
2022-08-19T03:08:58.757Z,24.00
2022-08-19T03:09:58.750Z,23.40
2022-08-19T03:10:58.736Z,28.50
2022-08-19T03:11:58.728Z,27.20
2022-08-19T03:12:58.718Z,23.70
2022-08-19T03:13:58.709Z,27.00
2022-08-19T03:14:58.715Z,25.20
2022-08-19T03:15:58.697Z,24.30
2022-08-19T03:16:58.686Z,24.70
2022-08-19T03:17:58.690Z,24.30
2022-08-19T03:18:58.690Z,25.30
2022-08-19T03:19:58.699Z,27.80
2022-08-19T03:20:58.679Z,28.10
2022-08-19T03:21:59.029Z,28.90
2022-08-19T03:22:58.660Z,29.50
2022-08-19T03:23:59.140Z,26.80
2022-08-19T03:24:58.663Z,28.10
2022-08-19T03:26:15.617Z,28.10
2022-08-19T03:26:58.646Z,26.00
2022-08-19T03:27:58.639Z,27.30
2022-08-19T03:28:59.055Z,25.80
2022-08-19T03:29:58.678Z,25.90
2022-08-19T03:30:58.608Z,27.40
2022-08-19T03:31:58.599Z,27.60
2022-08-19T03:32:58.706Z,27.10
2022-08-19T03:33:58.595Z,29.00
2022-08-19T03:34:58.597Z,25.30
2022-08-19T03:35:58.597Z,24.10
2022-08-19T03:36:58.566Z,27.20
2022-08-19T03:37:58.574Z,30.10
2022-08-19T03:38:59.872Z,26.60
2022-08-19T03:39:58.664Z,26.60
2022-08-19T03:40:58.538Z,25.70
2022-08-19T03:42:32.362Z,25.10
2022-08-19T03:42:58.927Z,27.20
2022-08-19T03:43:58.538Z,26.60
2022-08-19T03:44:58.656Z,27.50
2022-08-19T03:45:58.817Z,28.00
2022-08-19T03:46:58.976Z,27.80
2022-08-19T03:47:58.500Z,29.90
2022-08-19T03:48:59.089Z,31.70
2022-08-19T03:49:58.497Z,28.90
2022-08-19T03:50:59.207Z,30.10
2022-08-19T03:51:58.475Z,30.30
2022-08-19T03:52:58.467Z,28.30
2022-08-19T03:53:58.454Z,25.50
2022-08-19T03:54:59.128Z,25.80
2022-08-19T03:55:58.445Z,25.00
2022-08-19T03:56:58.428Z,25.40
2022-08-19T03:57:59.446Z,26.00
2022-08-19T03:58:59.154Z,25.60
2022-08-19T04:00:03.958Z,26.90
2022-08-19T04:00:58.418Z,25.70
2022-08-19T04:01:58.763Z,26.40
2022-08-19T04:03:00.897Z,27.60
2022-08-19T04:03:58.482Z,27.80
2022-08-19T04:04:58.384Z,29.30
2022-08-19T04:05:58.595Z,27.10
2022-08-19T04:06:58.594Z,27.40
2022-08-19T04:07:58.704Z,26.80
2022-08-19T04:08:58.714Z,27.40
2022-08-19T04:09:58.823Z,27.40
2022-08-19T04:10:58.344Z,26.50
2022-08-19T04:11:58.333Z,25.90
2022-08-19T04:12:58.323Z,26.30
2022-08-19T04:13:58.326Z,30.20
2022-08-19T04:14:58.323Z,27.70
2022-08-19T04:15:58.313Z,27.10
2022-08-19T04:16:58.295Z,24.60
2022-08-19T04:17:58.464Z,25.30
2022-08-19T04:18:58.283Z,26.20
2022-08-19T04:19:58.574Z,28.00
2022-08-19T04:20:58.574Z,27.80
2022-08-19T04:21:58.291Z,32.30
2022-08-19T04:22:58.252Z,31.20
2022-08-19T04:23:58.253Z,30.60
2022-08-19T04:24:58.252Z,32.00
2022-08-19T04:25:58.514Z,34.90
2022-08-19T04:26:58.616Z,30.00
2022-08-19T04:27:58.222Z,33.40
2022-08-19T04:28:58.212Z,32.50
2022-08-19T04:29:58.342Z,28.70
2022-08-19T04:30:58.251Z,28.50
2022-08-19T04:31:58.192Z,28.80
2022-08-19T04:32:58.191Z,31.60
2022-08-19T04:33:58.182Z,30.40
2022-08-19T04:35:01.489Z,31.00
2022-08-19T04:35:58.171Z,35.00
2022-08-19T04:36:58.171Z,33.70
2022-08-19T04:37:58.164Z,34.70
2022-08-19T04:38:58.150Z,33.50
2022-08-19T04:39:58.794Z,34.50
2022-08-19T04:40:59.191Z,36.80
2022-08-19T04:41:58.131Z,34.70
2022-08-19T04:42:58.120Z,36.70
2022-08-19T04:44:01.262Z,35.40
2022-08-19T04:44:58.432Z,32.30
2022-08-19T04:46:01.144Z,32.50
2022-08-19T04:46:58.095Z,35.20
2022-08-19T04:48:26.164Z,34.40
2022-08-19T04:48:58.669Z,34.40
2022-08-19T04:49:59.080Z,35.90
2022-08-19T04:50:58.069Z,34.90
2022-08-19T04:51:58.080Z,38.70
2022-08-19T04:52:58.051Z,36.70
2022-08-19T04:53:58.040Z,34.10
2022-08-19T04:54:58.198Z,38.40
2022-08-19T04:55:58.029Z,34.90
2022-08-19T04:56:58.019Z,34.00
2022-08-19T04:57:58.019Z,30.20
2022-08-19T04:58:58.007Z,31.10
2022-08-19T04:59:58.019Z,33.50
2022-08-19T05:00:57.992Z,34.00
2022-08-19T05:01:58.028Z,33.50
2022-08-19T05:02:57.978Z,35.10
2022-08-19T05:03:57.979Z,35.30
2022-08-19T05:04:57.978Z,34.80
2022-08-19T05:05:57.976Z,36.90
2022-08-19T05:07:00.847Z,34.00
2022-08-19T05:07:58.007Z,33.40
2022-08-19T05:08:57.938Z,35.30
2022-08-19T05:09:59.189Z,33.50
2022-08-19T05:10:57.938Z,31.80
2022-08-19T05:11:57.947Z,35.40
2022-08-19T05:12:57.908Z,38.90
2022-08-19T05:13:57.918Z,39.70
2022-08-19T05:14:58.165Z,40.50
2022-08-19T05:15:57.897Z,36.60
2022-08-19T05:17:23.805Z,35.90
2022-08-19T05:17:57.886Z,38.00
2022-08-19T05:18:57.875Z,36.90
2022-08-19T05:19:57.897Z,36.90
2022-08-19T05:20:57.874Z,35.10
2022-08-19T05:21:57.870Z,36.70
2022-08-19T05:22:57.877Z,31.80
2022-08-19T05:23:57.847Z,33.40
2022-08-19T05:25:12.236Z,33.90
2022-08-19T05:25:57.836Z,31.60
2022-08-19T05:26:57.846Z,33.40
2022-08-19T05:27:57.866Z,32.90
2022-08-19T05:28:57.868Z,35.90
2022-08-19T05:29:57.845Z,34.50
2022-08-19T05:30:57.885Z,35.00
2022-08-19T05:31:57.935Z,37.40
2022-08-19T05:32:57.779Z,35.40
2022-08-19T05:33:57.785Z,36.80
2022-08-19T05:34:57.786Z,35.30
2022-08-19T05:35:57.781Z,38.80
2022-08-19T05:36:57.774Z,39.20
2022-08-19T05:37:59.131Z,36.20
2022-08-19T05:38:57.739Z,36.60
2022-08-19T05:39:57.879Z,36.80
2022-08-19T05:40:57.993Z,35.30
2022-08-19T05:41:57.785Z,37.20
2022-08-19T05:42:59.665Z,39.80
2022-08-19T05:43:57.786Z,41.50
2022-08-19T05:44:57.745Z,37.00
2022-08-19T05:45:57.695Z,38.90
2022-08-19T05:46:57.839Z,34.90
2022-08-19T05:47:57.683Z,40.40
2022-08-19T05:48:57.661Z,39.20
2022-08-19T05:49:57.675Z,38.90
2022-08-19T05:50:57.648Z,40.30
2022-08-19T05:51:57.709Z,38.70
2022-08-19T05:52:58.173Z,36.90
2022-08-19T05:53:57.744Z,38.10
2022-08-19T05:54:57.716Z,39.50
2022-08-19T05:55:57.612Z,41.60
2022-08-19T05:56:57.724Z,42.10
2022-08-19T05:57:57.737Z,40.30
2022-08-19T05:58:58.410Z,41.90
2022-08-19T05:59:58.858Z,41.70
2022-08-19T06:00:57.584Z,39.60
2022-08-19T06:01:57.583Z,41.20
2022-08-19T06:02:57.639Z,41.60
2022-08-19T06:03:57.563Z,44.30
2022-08-19T06:04:57.611Z,45.20
2022-08-19T06:05:57.561Z,39.30
2022-08-19T06:06:57.922Z,41.20
2022-08-19T06:07:57.541Z,41.60
2022-08-19T06:08:57.942Z,46.70
2022-08-19T06:10:00.306Z,42.30
2022-08-19T06:10:57.512Z,44.80
2022-08-19T06:11:57.618Z,41.80
2022-08-19T06:12:57.499Z,43.60
2022-08-19T06:14:00.248Z,47.20
2022-08-19T06:15:01.216Z,45.10
2022-08-19T06:15:57.481Z,42.20
2022-08-19T06:16:57.480Z,46.10
2022-08-19T06:17:57.469Z,47.80
2022-08-19T06:18:57.451Z,43.20
2022-08-19T06:19:57.470Z,42.70
2022-08-19T06:20:57.473Z,46.50
2022-08-19T06:21:57.441Z,46.30
2022-08-19T06:22:57.445Z,47.50
2022-08-19T06:23:57.430Z,47.20
2022-08-19T06:24:57.427Z,44.10
2022-08-19T06:25:57.420Z,42.50
2022-08-19T06:27:00.804Z,44.00
2022-08-19T06:28:14.915Z,42.40
2022-08-19T06:28:57.397Z,44.80
2022-08-19T06:29:57.399Z,45.60
2022-08-19T06:30:57.397Z,47.80
2022-08-19T06:31:57.395Z,45.00
2022-08-19T06:32:57.381Z,45.50
2022-08-19T06:33:57.371Z,44.30
2022-08-19T06:34:57.341Z,42.60
2022-08-19T06:35:57.361Z,46.70
2022-08-19T06:36:57.548Z,43.80
2022-08-19T06:37:57.479Z,43.00
2022-08-19T06:38:57.329Z,41.90
2022-08-19T06:39:57.420Z,43.10
2022-08-19T06:40:57.329Z,44.20
2022-08-19T06:41:58.996Z,40.70
2022-08-19T06:42:57.554Z,42.60
2022-08-19T06:43:57.286Z,45.70
2022-08-19T06:44:57.278Z,42.80
2022-08-19T06:45:57.672Z,44.50
2022-08-19T06:46:57.270Z,43.30
2022-08-19T06:47:57.278Z,45.50
2022-08-19T06:48:57.248Z,42.90
2022-08-19T06:50:01.075Z,43.10
2022-08-19T06:50:57.288Z,41.80
2022-08-19T06:51:57.228Z,40.40
2022-08-19T06:52:57.229Z,41.70
2022-08-19T06:53:57.218Z,41.20
2022-08-19T06:54:59.737Z,42.00
2022-08-19T06:55:57.218Z,39.80
2022-08-19T06:56:57.203Z,42.70
2022-08-19T06:57:57.726Z,37.60
2022-08-19T06:58:57.202Z,38.70
2022-08-19T06:59:57.178Z,38.60
2022-08-19T07:00:57.198Z,41.70
2022-08-19T07:01:57.158Z,38.90
2022-08-19T07:03:00.891Z,39.10
2022-08-19T07:03:57.509Z,39.60
2022-08-19T07:04:57.147Z,42.70
2022-08-19T07:05:57.148Z,37.90
2022-08-19T07:06:57.128Z,38.50
2022-08-19T07:08:01.614Z,40.70
2022-08-19T07:08:57.118Z,37.20
2022-08-19T07:10:00.882Z,37.30
2022-08-19T07:10:57.118Z,40.30
2022-08-19T07:11:57.098Z,36.60
2022-08-19T07:12:57.138Z,35.20
2022-08-19T07:13:57.079Z,33.10
2022-08-19T07:14:57.080Z,37.00
2022-08-19T07:15:57.662Z,37.40
2022-08-19T07:16:57.067Z,36.30
2022-08-19T07:17:57.056Z,34.60
2022-08-19T07:18:57.057Z,35.40
2022-08-19T07:19:57.037Z,33.30
2022-08-19T07:20:57.305Z,34.70
2022-08-19T07:21:57.026Z,37.70
2022-08-19T07:22:57.038Z,35.10
2022-08-19T07:23:57.006Z,33.90
2022-08-19T07:24:57.014Z,32.20
2022-08-19T07:25:57.066Z,36.60
2022-08-19T07:26:56.999Z,36.20
2022-08-19T07:27:57.070Z,34.60
2022-08-19T07:28:56.984Z,31.70
2022-08-19T07:29:57.518Z,33.30
2022-08-19T07:30:56.977Z,31.90
2022-08-19T07:31:56.958Z,33.90
2022-08-19T07:32:56.967Z,30.70
2022-08-19T07:33:56.949Z,32.80
2022-08-19T07:34:57.222Z,33.50
2022-08-19T07:35:56.946Z,34.20
2022-08-19T07:36:56.938Z,35.00
2022-08-19T07:37:56.917Z,34.90
2022-08-19T07:38:56.988Z,36.10
2022-08-19T07:39:56.938Z,33.80
2022-08-19T07:40:56.955Z,30.30
2022-08-19T07:45:27.509Z,29.80
2022-08-19T07:46:27.442Z,31.00
2022-08-19T07:47:50.390Z,27.50
2022-08-19T07:48:27.410Z,30.70
2022-08-19T07:49:27.411Z,27.90
2022-08-19T07:50:27.440Z,30.30
2022-08-19T07:51:28.711Z,32.70
2022-08-19T07:52:27.390Z,30.10
2022-08-19T07:53:27.402Z,30.40
2022-08-19T07:54:27.380Z,27.40
2022-08-19T07:55:41.310Z,29.00
2022-08-19T07:56:27.371Z,25.90
2022-08-19T07:57:27.367Z,23.60
2022-08-19T07:59:53.337Z,28.70
2022-08-19T08:00:53.316Z,24.00
2022-08-19T08:01:53.306Z,26.20
2022-08-19T08:02:55.459Z,26.20
2022-08-19T08:03:53.277Z,23.90
2022-08-19T08:04:53.266Z,24.60
2022-08-19T08:05:53.286Z,24.70
2022-08-19T08:06:53.255Z,24.60
2022-08-19T08:07:53.259Z,19.70
2022-08-19T08:08:53.259Z,22.30
2022-08-19T08:10:54.713Z,23.50
2022-08-19T08:11:53.248Z,19.80
2022-08-19T08:13:09.575Z,22.60
2022-08-19T08:14:01.495Z,20.70
2022-08-19T08:14:55.992Z,21.90
2022-08-19T08:15:53.229Z,22.50
2022-08-19T08:16:53.210Z,22.90
2022-08-19T08:17:53.208Z,20.30
2022-08-19T08:18:53.408Z,21.50
2022-08-19T08:19:53.192Z,17.00
2022-08-19T08:20:53.210Z,18.30
2022-08-19T08:21:53.176Z,17.90
2022-08-19T08:22:53.282Z,18.10
2022-08-19T08:23:54.486Z,19.80
2022-08-19T08:24:53.140Z,17.70
2022-08-19T08:25:53.199Z,15.30
2022-08-19T08:26:57.668Z,16.80
2022-08-19T08:27:53.713Z,17.00
2022-08-19T08:28:53.128Z,18.40
2022-08-19T08:29:53.131Z,15.60
2022-08-19T08:30:53.136Z,16.40
2022-08-19T08:31:58.494Z,16.70
2022-08-19T08:32:53.108Z,18.20
2022-08-19T08:33:53.109Z,16.90
2022-08-19T08:34:53.078Z,18.10
2022-08-19T08:35:53.101Z,17.10
2022-08-19T08:36:53.099Z,17.20
2022-08-19T08:37:53.258Z,16.40
2022-08-19T08:39:53.084Z,18.80
2022-08-19T08:40:53.041Z,15.70
2022-08-19T08:41:53.058Z,14.60
2022-08-19T08:42:53.164Z,15.50
2022-08-19T08:43:53.198Z,13.50
2022-08-19T08:45:53.494Z,17.90
2022-08-19T08:46:53.011Z,15.70
2022-08-19T08:47:53.024Z,16.20
2022-08-19T08:48:52.978Z,14.80
2022-08-19T08:49:52.969Z,15.10
2022-08-19T08:50:52.979Z,15.60
2022-08-19T08:51:59.730Z,15.20
2022-08-19T08:52:53.116Z,16.20
2022-08-19T08:53:56.203Z,16.60
2022-08-19T08:54:55.368Z,14.50
2022-08-19T08:55:52.935Z,13.30
2022-08-19T08:56:52.938Z,16.60
2022-08-19T08:57:52.930Z,14.10
2022-08-19T08:58:54.729Z,16.60
2022-08-19T08:59:52.900Z,16.00
2022-08-19T09:00:52.890Z,17.90
2022-08-19T09:01:52.963Z,15.60
2022-08-19T09:02:52.888Z,15.10
2022-08-19T09:03:52.898Z,16.80
2022-08-19T09:04:52.878Z,17.50
2022-08-19T09:05:52.868Z,17.00
2022-08-19T09:06:52.878Z,18.20
2022-08-19T09:07:52.848Z,18.00
2022-08-19T09:08:52.838Z,18.90
2022-08-19T09:09:52.838Z,17.30
2022-08-19T09:10:55.261Z,17.50
2022-08-19T09:11:52.837Z,17.10
2022-08-19T09:12:52.807Z,18.10
2022-08-19T09:13:53.187Z,16.30
2022-08-19T09:14:52.828Z,17.50
2022-08-19T09:15:52.798Z,17.50
2022-08-19T09:16:52.861Z,18.20
2022-08-19T09:17:52.945Z,18.30
2022-08-19T09:18:52.769Z,18.90
2022-08-19T09:19:52.780Z,17.10
2022-08-19T09:20:52.757Z,18.40
2022-08-19T09:21:52.946Z,16.40
2022-08-19T09:22:52.767Z,16.90
2022-08-19T09:23:52.779Z,16.90
2022-08-19T09:24:52.737Z,15.70
2022-08-19T09:25:52.739Z,17.80
2022-08-19T09:26:53.062Z,17.30
2022-08-19T09:27:52.748Z,19.70
2022-08-19T09:28:52.707Z,17.40
2022-08-19T09:29:52.706Z,17.70
2022-08-19T09:30:52.914Z,20.60
2022-08-19T09:31:52.720Z,18.30
2022-08-19T09:32:52.918Z,17.30
2022-08-19T09:33:52.687Z,18.70
2022-08-19T09:34:52.746Z,18.10
2022-08-19T09:35:53.512Z,17.20
2022-08-19T09:36:52.646Z,16.10
2022-08-19T09:37:52.668Z,15.80
2022-08-19T09:38:52.635Z,17.50
2022-08-19T09:39:52.698Z,17.20
2022-08-19T09:40:52.618Z,16.10
2022-08-19T09:41:52.619Z,15.50
2022-08-19T09:42:52.757Z,18.30
2022-08-19T09:43:52.621Z,17.40
2022-08-19T09:44:52.588Z,18.50
2022-08-19T09:45:52.587Z,19.80
2022-08-19T09:46:52.579Z,19.00
2022-08-19T09:47:54.956Z,15.70
2022-08-19T09:48:52.569Z,16.50
2022-08-19T09:49:52.577Z,16.90
2022-08-19T09:50:52.735Z,16.80
2022-08-19T09:51:52.557Z,16.80
2022-08-19T09:52:55.650Z,19.10
2022-08-19T09:53:52.853Z,19.30
2022-08-19T09:54:52.526Z,18.20
2022-08-19T09:55:52.518Z,17.10
2022-08-19T09:56:52.507Z,19.90
2022-08-19T09:57:52.625Z,17.70
2022-08-19T09:58:52.537Z,17.80
2022-08-19T09:59:52.487Z,18.30
2022-08-19T10:00:52.487Z,16.90
2022-08-19T10:01:52.570Z,18.30
2022-08-19T10:02:53.557Z,14.80
2022-08-19T10:03:52.508Z,16.50
2022-08-19T10:04:52.519Z,17.80
2022-08-19T10:05:55.257Z,17.70
2022-08-19T10:06:53.680Z,17.50
2022-08-19T10:07:52.503Z,17.60
2022-08-19T10:08:52.428Z,16.70
2022-08-19T10:09:52.425Z,17.00
2022-08-19T10:10:52.481Z,14.70
2022-08-19T10:11:54.611Z,17.50
2022-08-19T10:12:52.407Z,16.70
2022-08-19T10:13:52.408Z,15.00
2022-08-19T10:14:52.398Z,13.60
2022-08-19T10:15:52.379Z,13.80
2022-08-19T10:16:52.427Z,16.40
2022-08-19T10:17:55.298Z,14.30
2022-08-19T10:18:52.370Z,12.70
2022-08-19T10:19:55.959Z,13.40
2022-08-19T10:20:52.756Z,13.10
2022-08-19T10:21:52.339Z,12.10
2022-08-19T10:22:52.378Z,11.10
2022-08-19T10:23:52.329Z,14.00
2022-08-19T10:24:52.348Z,12.80
2022-08-19T10:25:52.317Z,13.30
2022-08-19T10:26:57.247Z,14.60
2022-08-19T10:27:52.333Z,12.50
2022-08-19T10:28:52.834Z,11.50
2022-08-19T10:29:52.277Z,10.50
2022-08-19T10:30:52.277Z,11.00
2022-08-19T10:31:59.942Z,11.40
2022-08-19T10:32:52.278Z,11.40
2022-08-19T10:33:53.456Z,12.80
2022-08-19T10:34:52.246Z,14.10
2022-08-19T10:35:56.799Z,12.80
2022-08-19T10:36:56.464Z,11.60
2022-08-19T10:37:56.996Z,11.50
2022-08-19T10:38:56.210Z,9.90
2022-08-19T10:39:52.288Z,11.30
2022-08-19T10:40:52.208Z,10.30
2022-08-19T10:41:52.198Z,11.70
2022-08-19T10:42:52.205Z,11.50
2022-08-19T10:43:52.187Z,10.80
2022-08-19T10:44:52.265Z,12.40
2022-08-19T10:45:52.595Z,12.70
2022-08-19T10:46:52.167Z,13.10
2022-08-19T10:47:52.167Z,12.10
2022-08-19T10:48:52.155Z,10.50
2022-08-19T10:49:52.188Z,12.90
2022-08-19T10:50:52.157Z,14.10
2022-08-19T10:51:52.127Z,11.70
2022-08-19T10:52:52.139Z,11.70
2022-08-19T10:53:52.128Z,12.10
2022-08-19T10:54:52.117Z,9.80
2022-08-19T10:55:52.106Z,9.80
2022-08-19T10:56:52.101Z,10.90
2022-08-19T10:58:02.207Z,11.50
2022-08-19T10:58:52.086Z,11.90
2022-08-19T10:59:52.076Z,9.90
2022-08-19T11:00:52.153Z,9.20
2022-08-19T11:01:52.060Z,9.10
2022-08-19T11:02:52.155Z,8.60
2022-08-19T11:03:52.057Z,10.50
2022-08-19T11:04:52.047Z,9.70
2022-08-19T11:05:52.038Z,9.50
2022-08-19T11:06:52.027Z,8.70
2022-08-19T11:07:52.384Z,8.30
2022-08-19T11:08:52.024Z,7.60
2022-08-19T11:09:52.009Z,8.40
2022-08-19T11:10:51.998Z,7.70
2022-08-19T11:11:51.990Z,8.80
2022-08-19T11:12:52.008Z,9.80
2022-08-19T11:13:51.988Z,8.30
2022-08-19T11:14:51.998Z,9.90
2022-08-19T11:15:51.968Z,8.50
2022-08-19T11:16:51.968Z,7.90
2022-08-19T11:17:51.966Z,7.70
2022-08-19T11:18:51.955Z,6.80
2022-08-19T11:19:51.948Z,6.60
2022-08-19T11:20:51.938Z,7.50
2022-08-19T11:21:51.937Z,8.40
2022-08-19T11:22:51.940Z,7.20
2022-08-19T11:23:51.929Z,8.30
2022-08-19T11:24:51.919Z,6.90
2022-08-19T11:25:51.904Z,8.10
2022-08-19T11:26:51.899Z,7.50
2022-08-19T11:27:51.899Z,6.80
2022-08-19T11:28:51.880Z,6.10
2022-08-19T11:29:51.877Z,7.80
2022-08-19T11:30:51.868Z,6.40
2022-08-19T11:31:51.858Z,7.50
2022-08-19T11:32:51.869Z,7.20
2022-08-19T11:33:51.869Z,7.20
2022-08-19T11:34:51.849Z,5.90
2022-08-19T11:35:51.828Z,5.80
2022-08-19T11:36:51.831Z,7.50
2022-08-19T11:37:51.880Z,8.60
2022-08-19T11:38:51.818Z,7.30
2022-08-19T11:39:53.583Z,6.60
2022-08-19T11:40:51.809Z,6.90
2022-08-19T11:41:51.789Z,6.70
2022-08-19T11:42:51.807Z,7.10
2022-08-19T11:43:51.799Z,5.90
2022-08-19T11:44:51.780Z,6.50
2022-08-19T11:45:52.550Z,7.00
2022-08-19T11:46:52.099Z,7.10
2022-08-19T11:47:51.879Z,7.90
2022-08-19T11:48:51.760Z,6.50
2022-08-19T11:49:51.769Z,6.70
2022-08-19T11:50:51.757Z,7.90
2022-08-19T11:51:51.738Z,6.00
2022-08-19T11:52:51.779Z,7.60
2022-08-19T11:53:51.734Z,7.80
2022-08-19T11:54:51.880Z,7.60
2022-08-19T11:55:51.720Z,10.30
2022-08-19T11:56:51.713Z,6.90
2022-08-19T11:57:51.710Z,7.80
2022-08-19T11:58:51.697Z,8.00
2022-08-19T11:59:51.690Z,9.90
2022-08-19T12:00:51.682Z,9.20
2022-08-19T12:01:51.682Z,9.40
2022-08-19T12:02:51.670Z,8.90
2022-08-19T12:03:51.774Z,9.10
2022-08-19T12:04:51.661Z,8.70
2022-08-19T12:05:51.640Z,10.50
2022-08-19T12:06:51.652Z,8.10
2022-08-19T12:07:51.632Z,8.50
2022-08-19T12:08:51.640Z,8.60
2022-08-19T12:09:51.619Z,8.60
2022-08-19T12:10:51.611Z,8.30
2022-08-19T12:11:51.609Z,8.70
2022-08-19T12:12:58.920Z,7.90
2022-08-19T12:13:51.618Z,8.30
2022-08-19T12:14:51.591Z,8.20
2022-08-19T12:15:51.581Z,7.90
2022-08-19T12:16:52.455Z,8.00
2022-08-19T12:17:51.583Z,8.20
2022-08-19T12:18:51.583Z,8.50
2022-08-19T12:19:51.562Z,8.90
2022-08-19T12:20:51.561Z,8.40
2022-08-19T12:21:51.540Z,7.40
2022-08-19T12:22:51.539Z,7.80
2022-08-19T12:23:55.220Z,8.20
2022-08-19T12:24:51.520Z,7.70
2022-08-19T12:25:51.514Z,8.60
2022-08-19T12:26:53.383Z,8.10
2022-08-19T12:27:57.235Z,10.90
2022-08-19T12:28:51.521Z,8.60
2022-08-19T12:29:51.931Z,8.00
2022-08-19T12:30:51.492Z,10.10
2022-08-19T12:31:51.505Z,8.50
2022-08-19T12:32:51.483Z,7.70
2022-08-19T12:33:51.541Z,10.20
2022-08-19T12:34:51.451Z,8.20
2022-08-19T12:35:51.453Z,9.20
2022-08-19T12:36:51.454Z,8.20
2022-08-19T12:37:56.686Z,9.70
2022-08-19T12:38:51.441Z,7.10
2022-08-19T12:39:51.507Z,8.20
2022-08-19T12:40:51.627Z,8.40
2022-08-19T12:41:54.619Z,9.30
2022-08-19T12:42:51.422Z,8.80
2022-08-19T12:43:51.728Z,8.70
2022-08-19T12:44:51.421Z,9.50
2022-08-19T12:45:51.382Z,7.30
2022-08-19T12:46:53.861Z,9.20
2022-08-19T12:47:52.126Z,7.90
2022-08-19T12:48:55.272Z,7.40
2022-08-19T12:49:53.123Z,8.30
2022-08-19T12:50:51.352Z,8.10
2022-08-19T12:51:51.343Z,9.00
2022-08-19T12:52:51.570Z,9.70
2022-08-19T12:53:51.332Z,9.90
2022-08-19T12:54:54.554Z,8.00
2022-08-19T12:55:51.322Z,8.40
2022-08-19T12:56:51.324Z,8.00
2022-08-19T12:57:51.304Z,8.20
2022-08-19T12:58:52.804Z,8.20
2022-08-19T12:59:51.304Z,8.80
2022-08-19T13:00:51.326Z,8.00
2022-08-19T13:01:51.277Z,7.60
2022-08-19T13:02:51.272Z,9.60
2022-08-19T13:03:51.284Z,7.20